Terminal Aerodrome Forecast
Issued by NWS Jackson, MS

Home | Current Version | Previous Version | Text Only | Print | Product List | Glossary On
Versions: 1 2 3 4 5 6 7 8 9 10 11 12
000
FTUS44 KJAN 251723
TAFJAN
TAF
KJAN 251723Z 2518/2618 18015G27KT P6SM VCTS BKN040CB
     FM260300 19003KT 6SM BR FEW008 SCT250
     FM261100 19003KT 3SM BR FEW008 SCT250
     FM261400 19004KT P6SM FEW015 SCT250=

USA.gov is the U.S. government's official web portal to all federal, state and local government web resources and services.